createdAt,value
2022-11-25T00:02:15.091Z,100084.59
2022-11-25T00:07:17.286Z,100084.94
2022-11-25T00:12:20.396Z,100086.69
2022-11-25T00:17:23.622Z,100075.56
2022-11-25T00:22:25.678Z,100080.97
2022-11-25T00:27:27.689Z,100078.69
2022-11-25T00:32:29.740Z,100082.44
2022-11-25T00:37:32.540Z,100073.97
2022-11-25T00:42:53.454Z,100090.88
2022-11-25T00:47:55.495Z,100093.03
2022-11-25T00:52:57.510Z,100070.91
2022-11-25T00:57:59.505Z,100103.28
2022-11-25T01:03:01.524Z,100101.44
2022-11-25T01:08:03.714Z,100105.53
2022-11-25T01:13:05.864Z,100101.19
2022-11-25T01:18:07.890Z,100109.59
2022-11-25T01:23:09.995Z,100100.81
2022-11-25T01:28:14.012Z,100100.19
2022-11-25T01:33:16.121Z,100115.69
2022-11-25T01:38:18.173Z,100120.19
2022-11-25T01:43:20.230Z,100126.78
2022-11-25T01:48:51.192Z,100134.03
2022-11-25T01:53:57.996Z,100129.66
2022-11-25T01:59:00.122Z,100108.91
2022-11-25T02:04:02.784Z,100133.66
2022-11-25T02:09:08.959Z,100138.69
2022-11-25T02:14:14.959Z,100150.59
2022-11-25T02:19:25.782Z,100149.28
2022-11-25T02:24:38.498Z,100147.31
2022-11-25T02:29:42.622Z,100139.59
2022-11-25T02:34:48.444Z,100142.66
2022-11-25T02:39:53.605Z,100125.09
2022-11-25T02:44:55.577Z,100139.28
2022-11-25T02:49:59.242Z,100126.16
2022-11-25T02:55:01.237Z,100136.16
2022-11-25T03:00:05.712Z,100138.53
2022-11-25T03:05:08.338Z,100144.63
2022-11-25T03:10:10.629Z,100156.09
2022-11-25T03:15:12.796Z,100161.34
2022-11-25T03:20:15.411Z,100133.03
2022-11-25T03:25:17.894Z,100148.59
2022-11-25T03:30:23.565Z,100179.59
2022-11-25T03:35:29.629Z,100185.56
2022-11-25T03:40:31.719Z,100196.63
2022-11-25T03:45:34.329Z,100201.22
2022-11-25T03:50:39.926Z,100205.03
2022-11-25T03:55:42.140Z,100216.88
2022-11-25T04:00:44.941Z,100219.53
2022-11-25T04:05:47.571Z,100218.69
2022-11-25T04:10:50.758Z,100223.97
2022-11-25T04:15:57.523Z,100201.28
2022-11-25T04:21:00.796Z,100218.53
2022-11-25T04:26:03.055Z,100233.34
2022-11-25T04:31:10.230Z,100221.47
2022-11-25T04:36:16.352Z,100226.66
2022-11-25T04:41:18.599Z,100226.47
2022-11-25T04:46:27.632Z,100241.06
2022-11-25T04:51:30.377Z,100247.44
2022-11-25T04:56:36.851Z,100244.84
2022-11-25T05:01:39.012Z,100249.91
2022-11-25T05:07:01.468Z,100230.53
2022-11-25T05:12:05.017Z,100247.72
2022-11-25T05:17:07.992Z,100249.19
2022-11-25T05:22:15.580Z,100253.47
2022-11-25T05:27:20.386Z,100232.38
2022-11-25T05:32:24.131Z,100242.31
2022-11-25T05:37:26.606Z,100260.09
2022-11-25T05:42:35.547Z,100238.19
2022-11-25T05:47:39.828Z,100250.63
2022-11-25T05:52:42.914Z,100268.50
2022-11-25T05:57:45.031Z,100264.16
2022-11-25T06:02:51.831Z,100270.53
2022-11-25T06:07:55.009Z,100258.34
2022-11-25T06:12:58.116Z,100271.72
2022-11-25T06:18:00.212Z,100274.03
2022-11-25T06:23:04.711Z,100286.00
2022-11-25T06:28:13.115Z,100276.63
2022-11-25T06:33:20.236Z,100280.59
2022-11-25T06:38:23.903Z,100293.56
2022-11-25T06:43:26.035Z,100308.03
2022-11-25T06:48:28.489Z,100289.63
2022-11-25T06:53:31.225Z,100312.09
2022-11-25T06:58:36.157Z,100303.66
2022-11-25T07:03:38.719Z,100297.84
2022-11-25T07:08:41.435Z,100330.72
2022-11-25T07:13:44.350Z,100307.66
2022-11-25T07:18:46.616Z,100317.66
2022-11-25T07:23:49.893Z,100322.63
2022-11-25T07:28:53.982Z,100335.47
2022-11-25T07:34:20.742Z,100335.09
2022-11-25T07:39:24.028Z,100315.44
2022-11-25T07:44:25.963Z,100341.13
2022-11-25T07:49:36.148Z,100352.41
2022-11-25T07:54:38.394Z,100322.84
2022-11-25T07:59:41.658Z,100322.78
2022-11-25T08:04:43.737Z,100340.91
2022-11-25T08:09:45.751Z,100357.97
2022-11-25T08:14:47.839Z,100335.06
2022-11-25T08:19:49.916Z,100360.91
2022-11-25T08:24:51.957Z,100362.69
2022-11-25T08:29:54.038Z,100370.09
2022-11-25T08:34:57.173Z,100373.56
2022-11-25T08:39:59.598Z,100374.94
2022-11-25T08:45:02.328Z,100360.63
2022-11-25T08:50:09.982Z,100380.50
2022-11-25T08:55:12.034Z,100382.09
2022-11-25T09:00:15.201Z,100365.66
2022-11-25T09:05:17.843Z,100379.63
2022-11-25T09:10:20.079Z,100378.72
2022-11-25T09:15:22.146Z,100386.13
2022-11-25T09:20:24.228Z,100385.28
2022-11-25T09:25:27.618Z,100391.50
2022-11-25T09:30:29.963Z,100389.13
2022-11-25T09:35:32.193Z,100387.81
2022-11-25T09:41:41.718Z,100381.31
2022-11-25T09:47:04.766Z,100377.97
2022-11-25T09:52:31.525Z,100384.09
2022-11-25T09:58:11.692Z,100376.16
2022-11-25T10:03:35.894Z,100388.03
2022-11-25T10:08:41.800Z,100387.09
2022-11-25T10:13:53.996Z,100388.00
2022-11-25T10:19:12.235Z,100390.66
2022-11-25T10:24:17.718Z,100381.50
2022-11-25T10:29:30.146Z,100395.63
2022-11-25T10:34:40.267Z,100407.22
2022-11-25T10:39:42.263Z,100412.56
2022-11-25T10:44:44.417Z,100406.72
2022-11-25T10:50:25.744Z,100424.09
2022-11-25T10:55:33.065Z,100391.50
2022-11-25T11:00:37.598Z,100433.97
2022-11-25T11:05:49.243Z,100431.88
2022-11-25T11:11:20.604Z,100433.66
2022-11-25T11:16:34.059Z,100432.19
2022-11-25T11:21:41.826Z,100436.50
2022-11-25T11:26:43.867Z,100451.44
2022-11-25T11:31:51.883Z,100441.72
2022-11-25T11:37:28.551Z,100435.59
2022-11-25T11:42:50.167Z,100450.22
2022-11-25T11:48:11.438Z,100448.31
2022-11-25T11:53:34.876Z,100449.09
2022-11-25T11:58:46.953Z,100455.63
2022-11-25T12:03:59.681Z,100458.69
2022-11-25T12:09:09.639Z,100456.53
2022-11-25T12:14:37.123Z,100468.69
2022-11-25T12:20:17.073Z,100467.09
2022-11-25T12:25:36.414Z,100467.16
2022-11-25T12:31:04.708Z,100472.91
2022-11-25T12:36:16.075Z,100479.91
2022-11-25T12:41:24.025Z,100474.72
2022-11-25T12:46:30.031Z,100491.00
2022-11-25T12:51:41.326Z,100494.53
2022-11-25T12:57:02.894Z,100497.84
2022-11-25T13:02:32.725Z,100497.75
2022-11-25T13:07:44.133Z,100499.88
2022-11-25T13:12:52.426Z,100507.59
2022-11-25T13:18:01.844Z,100504.56
2022-11-25T13:23:22.621Z,100513.44
2022-11-25T13:28:35.343Z,100514.34
2022-11-25T13:33:43.519Z,100527.63
2022-11-25T13:38:51.369Z,100516.41
2022-11-25T13:44:04.120Z,100527.72
2022-11-25T13:49:28.902Z,100515.25
2022-11-25T13:54:36.766Z,100529.41
2022-11-25T13:59:42.104Z,100526.69
2022-11-25T14:04:58.569Z,100520.59
2022-11-25T14:10:26.273Z,100536.41
2022-11-25T14:15:38.053Z,100544.22
2022-11-25T14:21:12.527Z,100528.25
2022-11-25T14:26:48.741Z,100534.44
2022-11-25T14:31:57.197Z,100542.28
2022-11-25T14:37:21.385Z,100542.78
2022-11-25T14:42:27.801Z,100556.13
2022-11-25T14:47:39.206Z,100560.47
2022-11-25T14:52:47.172Z,100552.63
2022-11-25T14:57:49.526Z,100533.38
2022-11-25T15:02:57.651Z,100569.69
2022-11-25T15:08:10.594Z,100566.13
2022-11-25T15:13:31.380Z,100560.47
2022-11-25T15:18:35.740Z,100560.97
2022-11-25T15:23:38.213Z,100581.34
2022-11-25T15:28:40.253Z,100577.06
2022-11-25T15:33:43.012Z,100585.78
2022-11-25T15:38:46.613Z,100581.13
2022-11-25T15:43:53.593Z,100587.53
2022-11-25T15:48:59.311Z,100577.34
2022-11-25T15:54:14.237Z,100578.19
2022-11-25T15:59:45.897Z,100588.94
2022-11-25T16:04:47.992Z,100587.78
2022-11-25T16:09:51.496Z,100599.09
2022-11-25T16:14:53.796Z,100596.38
2022-11-25T16:19:56.306Z,100609.00
2022-11-25T16:26:26.771Z,100603.97
2022-11-25T16:30:21.370Z,100602.06
2022-11-25T16:35:23.410Z,100597.16
2022-11-25T16:40:28.918Z,100599.75
2022-11-25T16:45:31.026Z,100567.28
2022-11-25T16:50:33.191Z,100596.50
2022-11-25T16:55:37.043Z,100602.94
2022-11-25T17:00:39.178Z,100601.31
2022-11-25T17:05:41.329Z,100579.38
2022-11-25T17:10:44.662Z,100612.69
2022-11-25T17:15:47.018Z,100615.50
2022-11-25T17:20:49.105Z,100616.28
2022-11-25T17:25:51.482Z,100624.91
2022-11-25T17:30:54.191Z,100606.19
2022-11-25T17:35:56.358Z,100623.78
2022-11-25T17:40:58.356Z,100614.91
2022-11-25T17:46:00.548Z,100620.16
2022-11-25T17:51:07.238Z,100635.41
2022-11-25T17:56:32.705Z,100630.59
2022-11-25T18:01:34.852Z,100621.47
2022-11-25T18:06:36.996Z,100592.78
2022-11-25T18:11:46.717Z,100626.31
2022-11-25T18:16:49.677Z,100621.47
2022-11-25T18:21:51.922Z,100630.28
2022-11-25T18:26:54.088Z,100639.03
2022-11-25T18:31:57.352Z,100639.00
2022-11-25T18:36:59.587Z,100629.19
2022-11-25T18:42:03.738Z,100633.53
2022-11-25T18:47:05.944Z,100632.81
2022-11-25T18:52:08.166Z,100630.59
2022-11-25T18:57:14.804Z,100626.31
2022-11-25T19:02:18.486Z,100622.38
2022-11-25T19:07:20.944Z,100654.03
2022-11-25T19:12:23.594Z,100658.19
2022-11-25T19:17:26.211Z,100654.63
2022-11-25T19:22:28.542Z,100664.09
2022-11-25T19:27:35.316Z,100661.31
2022-11-25T19:32:37.717Z,100662.59
2022-11-25T19:37:41.204Z,100678.41
2022-11-25T19:42:46.108Z,100680.00
2022-11-25T19:47:51.099Z,100676.56
2022-11-25T19:52:53.640Z,100682.16
2022-11-25T19:57:56.674Z,100664.28
2022-11-25T20:02:59.708Z,100682.03
2022-11-25T20:08:01.878Z,100686.09
2022-11-25T20:13:06.935Z,100703.06
2022-11-25T20:18:21.538Z,100693.47
2022-11-25T20:23:39.976Z,100679.16
2022-11-25T20:28:43.945Z,100705.53
2022-11-25T20:33:47.774Z,100696.72
2022-11-25T20:38:54.802Z,100710.47
2022-11-25T20:43:57.996Z,100703.19
2022-11-25T20:49:02.440Z,100712.78
2022-11-25T20:54:06.711Z,100708.63
2022-11-25T20:59:28.713Z,100716.75
2022-11-25T21:04:30.702Z,100713.75
2022-11-25T21:09:36.247Z,100724.88
2022-11-25T21:14:38.480Z,100729.28
2022-11-25T21:19:40.650Z,100723.28
2022-11-25T21:24:43.010Z,100730.13
2022-11-25T21:29:45.664Z,100733.84
2022-11-25T21:34:47.954Z,100729.38
2022-11-25T21:39:49.970Z,100729.34
2022-11-25T21:44:53.112Z,100738.63
2022-11-25T21:49:55.446Z,100734.41
2022-11-25T21:54:57.942Z,100741.22
2022-11-25T22:00:00.043Z,100748.16
2022-11-25T22:05:03.035Z,100752.47
2022-11-25T22:10:06.402Z,100744.72
2022-11-25T22:15:21.577Z,100758.19
2022-11-25T22:20:30.570Z,100752.94
2022-11-25T22:25:33.106Z,100754.81
2022-11-25T22:30:35.131Z,100726.16
2022-11-25T22:35:37.176Z,100752.53
2022-11-25T22:40:39.414Z,100729.84
2022-11-25T22:45:41.422Z,100730.56
2022-11-25T22:50:45.755Z,100755.84
2022-11-25T22:55:48.408Z,100749.75
2022-11-25T23:00:50.885Z,100749.06
2022-11-25T23:05:54.322Z,100744.84
2022-11-25T23:10:57.006Z,100743.75
2022-11-25T23:16:04.010Z,100730.72
2022-11-25T23:21:07.748Z,100733.38
2022-11-25T23:26:10.867Z,100730.91
2022-11-25T23:31:14.469Z,100702.38
2022-11-25T23:36:25.934Z,100734.72
2022-11-25T23:41:30.952Z,100754.34
2022-11-25T23:46:36.924Z,100748.13
2022-11-25T23:51:38.983Z,100709.00
2022-11-25T23:56:40.978Z,100746.25
